Time;durP1;ratioP1;P1;durP2;ratioP2;P2;SDS_P1;SDS_P2;PMS_P1;PMS_P2;Temp;Humidity;BMP_temperature;BMP_pressure;BME280_temperature;BME280_humidity;BME280_pressure;Samples;Min_cycle;Max_cycle;Signal;HPM_P1;HPM_P2
2022/12/19 00:01:27;;;;;;;;;43.50;34.00;;;;;4.78;81.80;101467.69;5040614;28;45686;-64
2022/12/19 00:03:58;;;;;;;;;35.75;29.75;;;;;4.77;81.79;101453.84;5059568;28;46602;-67
2022/12/19 00:06:25;;;;;;;;;36.25;29.75;;;;;4.82;81.97;101465.28;5053185;28;46655;-64
2022/12/19 00:08:52;;;;;;;;;31.50;25.75;;;;;4.63;81.80;101442.06;5054897;28;45695;-65
2022/12/19 00:11:20;;;;;;;;;37.75;32.75;;;;;4.89;82.05;101479.38;5041454;28;45560;-64
2022/12/19 00:13:46;;;;;;;;;40.50;33.25;;;;;4.87;82.69;101471.50;5061172;27;45585;-64
2022/12/19 00:16:19;;;;;;;;;43.50;36.75;;;;;4.89;81.99;101467.25;5070547;27;45590;-65
2022/12/19 00:18:47;;;;;;;;;37.50;33.00;;;;;4.92;81.97;101469.09;5054082;28;45842;-64
2022/12/19 00:21:17;;;;;;;;;44.00;35.50;;;;;4.94;81.81;101472.63;5054130;27;45760;-64
2022/12/19 00:23:43;;;;;;;;;38.50;31.75;;;;;4.89;81.95;101461.19;5056354;28;45514;-65
2022/12/19 00:26:21;;;;;;;;;46.00;30.50;;;;;4.97;82.00;101467.53;5061290;28;45604;-64
2022/12/19 00:28:52;;;;;;;;;46.25;32.25;;;;;4.94;81.72;101457.06;5064611;28;45432;-63
2022/12/19 00:31:20;;;;;;;;;39.75;32.25;;;;;4.99;81.96;101463.28;5071100;28;45778;-63
2022/12/19 00:34:14;;;;;;;;;36.00;32.00;;;;;4.98;81.87;101468.41;5057421;28;45529;-68
2022/12/19 00:36:42;;;;;;;;;33.75;30.00;;;;;5.00;82.14;101465.03;5040152;28;45647;-64
2022/12/19 00:39:09;;;;;;;;;39.50;31.50;;;;;5.02;82.02;101454.72;5065963;28;45783;-64
2022/12/19 00:41:39;;;;;;;;;37.00;31.25;;;;;5.07;81.52;101459.25;5051090;28;45405;-64
2022/12/19 00:44:08;;;;;;;;;32.50;26.75;;;;;5.08;81.44;101458.44;5053658;28;45505;-65
2022/12/19 00:46:35;;;;;;;;;30.75;29.25;;;;;5.13;81.73;101462.91;5053564;28;45471;-65
2022/12/19 00:49:17;;;;;;;;;40.50;32.00;;;;;5.02;81.80;101441.75;5052746;28;45356;-65
2022/12/19 00:51:43;;;;;;;;;35.75;31.50;;;;;5.07;81.72;101448.84;5036971;28;45762;-64
2022/12/19 00:54:09;;;;;;;;;35.00;29.25;;;;;5.07;81.63;101447.97;5052931;28;45788;-64
2022/12/19 00:56:35;;;;;;;;;37.75;30.50;;;;;5.04;82.55;101442.69;5053076;28;45660;-64
2022/12/19 00:59:01;;;;;;;;;44.00;30.50;;;;;5.00;81.79;101425.22;5053389;28;46308;-63
2022/12/19 01:01:30;;;;;;;;;36.75;32.00;;;;;5.07;82.58;101432.41;5055520;28;45565;-64
2022/12/19 01:04:00;;;;;;;;;36.75;31.00;;;;;5.04;82.14;101422.78;5040245;28;45628;-63
2022/12/19 01:06:26;;;;;;;;;43.25;32.50;;;;;5.09;82.63;101435.94;5055282;28;45606;-64
2022/12/19 01:08:53;;;;;;;;;33.25;29.50;;;;;5.11;82.49;101431.69;5069537;28;46272;-64
2022/12/19 01:12:44;;;;;;;;;33.25;29.75;;;;;5.13;81.94;101432.63;5041619;27;45602;-64
2022/12/19 01:14:09;;;;;;;;;37.00;33.50;;;;;5.02;82.07;101400.19;5062092;28;45646;-64
2022/12/19 01:16:35;;;;;;;;;34.25;29.50;;;;;5.16;82.29;101426.66;5066212;27;45506;-66
2022/12/19 01:19:01;;;;;;;;;33.75;30.00;;;;;5.13;82.13;101426.56;5054974;28;45389;-66
2022/12/19 01:21:26;;;;;;;;;38.00;30.00;;;;;5.20;82.20;101438.94;5055472;28;45417;-65
2022/12/19 01:23:52;;;;;;;;;37.25;31.75;;;;;5.13;82.51;101421.38;5060250;28;45582;-64
2022/12/19 01:26:17;;;;;;;;;38.75;32.75;;;;;5.18;82.33;101446.66;5065796;28;45579;-65
2022/12/19 01:28:43;;;;;;;;;36.50;31.25;;;;;5.11;81.87;101426.50;5070956;28;45572;-64
2022/12/19 01:31:09;;;;;;;;;32.25;29.00;;;;;5.22;81.85;101427.75;5069903;28;45534;-62
2022/12/19 01:33:34;;;;;;;;;34.75;30.75;;;;;5.12;82.00;101414.38;5067121;28;45465;-63
2022/12/19 01:36:06;;;;;;;;;33.75;31.00;;;;;5.23;82.43;101441.63;5060703;28;45541;-62
2022/12/19 01:38:33;;;;;;;;;32.25;29.00;;;;;5.16;82.00;101431.84;5079729;28;46186;-63
2022/12/19 01:40:59;;;;;;;;;35.25;29.50;;;;;5.18;82.89;101428.47;5060737;28;45451;-63
2022/12/19 01:43:27;;;;;;;;;30.50;26.75;;;;;5.22;82.83;101430.34;5047385;28;45394;-62
2022/12/19 01:46:13;;;;;;;;;35.00;30.50;;;;;5.27;82.36;101428.78;5075856;28;45417;-62
2022/12/19 01:48:42;;;;;;;;;32.25;28.75;;;;;5.30;82.25;101428.03;5067941;27;45511;-64
2022/12/19 01:51:45;;;;;;;;;31.00;25.25;;;;;5.27;81.83;101407.16;5071318;28;46230;-63
2022/12/19 01:54:16;;;;;;;;;30.00;25.50;;;;;5.39;81.34;101417.94;5063731;28;46511;-63
2022/12/19 01:56:49;;;;;;;;;32.25;27.50;;;;;5.41;81.50;101424.09;5068958;28;45570;-63
2022/12/19 01:59:22;;;;;;;;;34.00;30.00;;;;;5.40;81.53;101408.44;5063708;28;46198;-63
2022/12/19 02:01:55;;;;;;;;;25.00;24.25;;;;;5.42;81.25;101410.25;5070021;28;45638;-63
2022/12/19 02:04:25;;;;;;;;;27.25;25.50;;;;;5.43;81.28;101408.53;5068266;28;45972;-63
2022/12/19 02:06:52;;;;;;;;;20.50;20.50;;;;;5.49;81.11;101419.13;5072508;28;45446;-62
2022/12/19 02:09:18;;;;;;;;;28.25;24.00;;;;;5.48;81.08;101425.16;5073041;28;45343;-62
2022/12/19 02:11:46;;;;;;;;;30.50;24.50;;;;;5.56;81.62;101428.91;5058064;28;45860;-64
2022/12/19 02:14:12;;;;;;;;;28.50;22.75;;;;;5.56;81.32;101422.84;5054525;28;45516;-65
2022/12/19 02:17:15;;;;;;;;;28.75;25.00;;;;;5.63;80.65;101432.59;5073768;28;45525;-63
2022/12/19 02:20:09;;;;;;;;;30.25;25.50;;;;;5.64;80.85;101427.44;5071852;28;46101;-64
2022/12/19 02:23:05;;;;;;;;;26.75;26.50;;;;;5.66;80.55;101430.09;5074510;28;45472;-63
2022/12/19 02:25:56;;;;;;;;;25.75;23.75;;;;;5.67;81.34;101419.75;5075418;28;45452;-65
2022/12/19 02:28:34;;;;;;;;;28.00;27.00;;;;;5.68;81.03;101425.84;5075907;28;45485;-65
2022/12/19 02:31:09;;;;;;;;;21.25;16.75;;;;;5.71;80.51;101412.94;5053143;28;47023;-63
2022/12/19 02:33:50;;;;;;;;;23.25;19.50;;;;;5.65;81.24;101411.03;5073037;28;45429;-63
2022/12/19 02:36:37;;;;;;;;;31.50;23.75;;;;;5.69;80.78;101417.19;5056685;28;45897;-62
2022/12/19 02:39:09;;;;;;;;;27.25;23.75;;;;;5.74;80.82;101426.91;5050902;28;45476;-65
2022/12/19 02:41:43;;;;;;;;;26.75;23.50;;;;;5.71;81.14;101419.00;5067936;28;45552;-62
2022/12/19 02:44:18;;;;;;;;;23.50;19.50;;;;;5.77;81.09;101423.53;5057739;28;45502;-63
2022/12/19 02:46:46;;;;;;;;;25.50;23.75;;;;;5.77;81.28;101422.66;5049626;28;45732;-63
2022/12/19 02:49:12;;;;;;;;;28.25;22.50;;;;;5.78;80.88;101425.28;5056199;28;46155;-62
2022/12/19 02:51:38;;;;;;;;;28.25;25.00;;;;;5.77;80.96;101420.94;5069971;27;45705;-64
2022/12/19 02:54:04;;;;;;;;;30.50;25.50;;;;;5.71;81.19;101419.00;5077329;28;45406;-63
2022/12/19 02:57:09;;;;;;;;;26.75;24.00;;;;;5.77;81.24;101422.66;5075094;28;45629;-63
2022/12/19 02:59:52;;;;;;;;;31.75;25.00;;;;;5.78;81.72;101420.09;5018423;27;45532;-64
2022/12/19 03:02:36;;;;;;;;;27.25;24.25;;;;;5.79;81.75;101419.28;5071976;28;45826;-65
2022/12/19 03:05:13;;;;;;;;;30.25;29.50;;;;;5.78;81.68;101414.88;5075030;28;45440;-64
2022/12/19 03:07:53;;;;;;;;;24.00;22.75;;;;;5.78;82.12;101409.69;5052938;28;45422;-63
2022/12/19 03:10:41;;;;;;;;;27.00;25.00;;;;;5.73;81.68;101406.06;5067361;27;45711;-64
2022/12/19 03:13:13;;;;;;;;;25.25;23.50;;;;;5.74;81.75;101403.53;5052699;28;47068;-63
2022/12/19 03:15:40;;;;;;;;;27.50;24.75;;;;;5.84;81.59;101409.91;5070608;28;45473;-64
2022/12/19 03:18:06;;;;;;;;;25.25;20.75;;;;;5.87;81.75;101419.50;5057173;28;45496;-64
2022/12/19 03:21:01;;;;;;;;;23.50;20.00;;;;;5.87;81.77;101412.59;5072637;28;45553;-64
2022/12/19 03:23:27;;;;;;;;;21.25;20.50;;;;;5.92;81.51;101418.81;5074302;28;46438;-64
2022/12/19 03:25:58;;;;;;;;;26.25;21.25;;;;;5.92;81.40;101417.94;5077122;27;45449;-62
2022/12/19 03:28:41;;;;;;;;;23.25;20.50;;;;;5.83;81.52;101397.72;5078890;27;45409;-63
2022/12/19 03:31:08;;;;;;;;;21.50;20.00;;;;;5.94;81.35;101411.09;5075178;28;45442;-64
2022/12/19 03:33:38;;;;;;;;;26.25;22.50;;;;;5.95;81.48;101412.84;5076765;28;45659;-63
2022/12/19 03:36:09;;;;;;;;;26.50;23.25;;;;;5.91;81.64;101406.66;5055749;28;45369;-63
2022/12/19 03:38:36;;;;;;;;;26.50;21.25;;;;;5.92;81.05;101408.41;5069075;28;45401;-64
2022/12/19 03:41:05;;;;;;;;;9.00;6.50;;;;;5.92;81.66;101400.63;5052679;28;45528;-62
2022/12/19 03:43:32;;;;;;;;;25.50;23.00;;;;;5.94;81.05;101390.31;5073957;27;45494;-62
2022/12/19 03:46:09;;;;;;;;;24.25;19.25;;;;;6.05;81.13;101408.81;5054346;28;45575;-63
2022/12/19 03:48:49;;;;;;;;;22.25;18.50;;;;;6.03;81.28;101397.53;5064129;28;45447;-63
2022/12/19 03:51:18;;;;;;;;;21.50;20.50;;;;;6.03;81.60;101395.78;5070203;28;45398;-62
2022/12/19 03:54:01;;;;;;;;;33.75;24.00;;;;;5.95;81.21;101386.84;5074365;28;45683;-63
2022/12/19 03:56:29;;;;;;;;;27.25;21.75;;;;;6.01;81.64;101401.78;5073889;27;45832;-63
2022/12/19 03:59:11;;;;;;;;;32.50;27.00;;;;;5.99;81.97;101406.94;5075435;28;45730;-64
2022/12/19 04:01:39;;;;;;;;;28.75;22.50;;;;;5.95;81.53;101402.47;5077052;28;45644;-63
2022/12/19 04:04:06;;;;;;;;;25.50;25.25;;;;;6.02;81.59;101403.53;5078223;27;46522;-62
2022/12/19 04:06:33;;;;;;;;;28.75;22.25;;;;;6.02;81.78;101393.13;5078586;28;45482;-63
2022/12/19 04:09:00;;;;;;;;;29.75;26.00;;;;;6.02;82.11;101400.94;5072901;28;45409;-63
2022/12/19 04:11:33;;;;;;;;;22.25;20.00;;;;;6.05;81.91;101403.63;5074135;28;45362;-63
2022/12/19 04:14:04;;;;;;;;;21.75;19.75;;;;;6.09;81.83;101405.50;5073946;27;45636;-64
2022/12/19 04:16:54;;;;;;;;;21.75;18.75;;;;;6.12;81.54;101411.69;5073307;28;45432;-65
2022/12/19 04:19:28;;;;;;;;;21.50;19.75;;;;;6.13;81.45;101396.97;5069090;28;45391;-64
2022/12/19 04:22:21;;;;;;;;;27.75;21.25;;;;;6.21;80.95;101400.66;5074071;27;45593;-63
2022/12/19 04:24:50;;;;;;;;;24.00;21.00;;;;;6.16;81.13;101397.91;5050695;28;46287;-63
2022/12/19 04:27:17;;;;;;;;;18.25;17.75;;;;;6.20;80.84;101400.63;5067391;28;45502;-63
2022/12/19 04:29:43;;;;;;;;;17.75;17.75;;;;;6.26;81.03;101417.28;5074601;28;45378;-64
2022/12/19 04:32:10;;;;;;;;;21.00;18.00;;;;;6.16;80.97;101394.44;5076672;28;45434;-61
2022/12/19 04:34:36;;;;;;;;;19.00;18.75;;;;;6.28;81.07;101409.53;5072746;28;46561;-62
2022/12/19 04:37:02;;;;;;;;;21.25;14.75;;;;;6.33;80.77;101418.34;5067220;27;45465;-64
2022/12/19 04:39:28;;;;;;;;;18.25;16.50;;;;;6.32;80.78;101414.88;5063613;28;45603;-65
2022/12/19 04:41:53;;;;;;;;;23.50;17.50;;;;;6.25;81.10;101399.06;5068878;28;45592;-64
2022/12/19 04:44:19;;;;;;;;;20.50;19.00;;;;;6.28;81.21;101400.00;5074706;28;45519;-65
2022/12/19 04:46:45;;;;;;;;;19.50;16.25;;;;;6.29;81.42;101400.91;5065462;27;45753;-63
2022/12/19 04:49:10;;;;;;;;;21.25;19.25;;;;;6.30;81.22;101393.13;5072451;28;45426;-64
2022/12/19 04:51:36;;;;;;;;;21.75;19.00;;;;;6.39;81.13;101418.56;5065546;28;45830;-63
2022/12/19 04:54:01;;;;;;;;;18.25;17.75;;;;;6.29;81.30;101388.78;5054269;28;45565;-63
2022/12/19 04:56:27;;;;;;;;;20.75;16.75;;;;;6.39;81.08;101404.66;5064544;28;45980;-63
2022/12/19 04:58:57;;;;;;;;;20.00;17.25;;;;;6.43;81.37;101412.63;5056024;28;45766;-62
2022/12/19 05:01:23;;;;;;;;;20.00;16.00;;;;;6.46;81.21;101414.44;5053120;28;45842;-65
2022/12/19 05:03:48;;;;;;;;;19.75;17.00;;;;;6.37;80.79;101391.59;5052894;28;46421;-63
2022/12/19 05:06:14;;;;;;;;;21.25;16.75;;;;;6.44;80.89;101397.88;5055445;28;45516;-62
2022/12/19 05:08:41;;;;;;;;;22.00;18.25;;;;;6.46;80.43;101398.81;5050924;28;45624;-63
2022/12/19 05:11:10;;;;;;;;;23.25;16.75;;;;;6.48;81.08;101394.53;5058409;27;46909;-63
2022/12/19 05:13:36;;;;;;;;;17.00;16.00;;;;;6.52;80.94;101392.03;5042963;28;48169;-64
2022/12/19 05:16:07;;;;;;;;;19.50;17.25;;;;;6.54;80.77;101395.56;5060450;28;45358;-65
2022/12/19 05:18:34;;;;;;;;;19.50;16.25;;;;;6.59;81.12;101408.72;5058689;28;45441;-65
2022/12/19 05:21:00;;;;;;;;;19.25;15.00;;;;;6.60;80.71;101402.69;5063214;28;45564;-62
2022/12/19 05:23:26;;;;;;;;;19.25;19.00;;;;;6.61;81.17;101413.97;5061876;27;46678;-63
2022/12/19 05:25:52;;;;;;;;;14.50;11.25;;;;;6.55;80.88;101389.56;5059470;28;45362;-64
2022/12/19 05:28:18;;;;;;;;;19.25;17.00;;;;;6.61;80.19;101396.63;5054782;28;45788;-64
2022/12/19 05:30:44;;;;;;;;;20.25;17.75;;;;;6.65;80.63;101400.22;5055845;28;45982;-63
2022/12/19 05:33:10;;;;;;;;;20.25;18.00;;;;;6.63;80.74;101407.97;5053724;28;46756;-64
2022/12/19 05:35:36;;;;;;;;;21.75;20.25;;;;;6.64;80.82;101403.66;5062043;28;45596;-62
2022/12/19 05:38:02;;;;;;;;;20.75;17.25;;;;;6.64;80.63;101412.34;5056567;28;45564;-62
2022/12/19 05:40:28;;;;;;;;;26.75;21.75;;;;;6.59;80.76;101404.38;5068099;28;45599;-62
2022/12/19 05:42:54;;;;;;;;;19.75;18.25;;;;;6.57;80.87;101407.78;5072740;28;46257;-64
2022/12/19 05:45:20;;;;;;;;;23.25;17.50;;;;;6.63;81.22;101413.19;5072397;28;46068;-63
2022/12/19 05:47:46;;;;;;;;;16.75;15.75;;;;;6.62;81.16;101418.34;5071866;27;45515;-65
2022/12/19 05:50:13;;;;;;;;;21.50;17.00;;;;;6.64;80.81;101412.34;5042169;28;45569;-65
2022/12/19 05:52:38;;;;;;;;;19.75;18.75;;;;;6.57;81.04;101398.28;5054055;27;47199;-64
2022/12/19 05:55:05;;;;;;;;;27.25;22.50;;;;;6.67;80.99;101407.25;5072587;28;45677;-63
2022/12/19 05:57:31;;;;;;;;;17.75;17.75;;;;;6.63;80.74;101405.38;5055364;28;45349;-62
2022/12/19 05:59:57;;;;;;;;;20.50;17.75;;;;;6.62;80.93;101400.13;5068385;27;45482;-64
2022/12/19 06:02:23;;;;;;;;;22.25;17.25;;;;;6.68;80.65;101414.19;5074816;27;46233;-63
2022/12/19 06:04:49;;;;;;;;;18.25;18.00;;;;;6.63;81.23;101404.50;5080047;28;45473;-63
2022/12/19 06:07:15;;;;;;;;;22.75;20.25;;;;;6.61;80.96;101404.44;5057325;28;45710;-63
2022/12/19 06:09:40;;;;;;;;;23.50;20.50;;;;;6.64;81.41;101407.13;5072321;28;46120;-63
2022/12/19 06:12:06;;;;;;;;;21.75;20.00;;;;;6.62;81.26;101408.84;5070831;28;45878;-63
2022/12/19 06:14:32;;;;;;;;;17.75;16.50;;;;;6.68;81.58;101403.78;5058409;28;45933;-63
2022/12/19 06:16:57;;;;;;;;;23.25;18.00;;;;;6.69;81.47;101404.66;5070296;28;45279;-63
2022/12/19 06:19:23;;;;;;;;;20.00;17.75;;;;;6.71;81.47;101411.66;5070975;28;45473;-63
2022/12/19 06:21:49;;;;;;;;;21.50;17.75;;;;;6.74;81.39;101409.19;5075836;27;46162;-64
2022/12/19 06:24:15;;;;;;;;;21.00;18.50;;;;;6.72;81.56;101407.38;5076009;28;45433;-64
2022/12/19 06:26:41;;;;;;;;;19.75;18.50;;;;;6.71;81.76;101409.06;5077837;28;45484;-63
2022/12/19 06:29:06;;;;;;;;;19.00;16.75;;;;;6.78;81.42;101412.75;5068015;27;45450;-63
2022/12/19 06:31:32;;;;;;;;;20.00;17.25;;;;;6.74;81.16;101395.28;5075796;28;45843;-63
2022/12/19 06:33:58;;;;;;;;;19.25;17.50;;;;;6.75;81.60;101390.09;5079680;27;45502;-62
2022/12/19 06:36:26;;;;;;;;;17.50;15.25;;;;;6.82;81.38;101398.09;5061508;28;45497;-63
2022/12/19 06:38:53;;;;;;;;;19.25;18.50;;;;;6.84;81.55;101402.50;5056110;28;45966;-65
2022/12/19 06:44:06;;;;;;;;;18.75;16.50;;;;;6.82;81.37;101396.38;5078141;28;45314;-64
2022/12/19 06:46:32;;;;;;;;;11.75;8.25;;;;;6.85;81.52;101399.06;5075704;28;45530;-64
2022/12/19 06:48:58;;;;;;;;;16.50;13.75;;;;;6.90;81.20;101401.78;5074334;28;45493;-66
2022/12/19 06:51:24;;;;;;;;;17.00;16.50;;;;;6.83;81.15;101379.88;5049609;28;47585;-62
2022/12/19 06:53:50;;;;;;;;;23.25;19.75;;;;;6.88;81.09;101396.56;5056853;28;45884;-63
2022/12/19 06:56:16;;;;;;;;;21.25;17.25;;;;;6.90;81.44;101393.97;5056904;28;45571;-63
2022/12/19 06:58:42;;;;;;;;;19.50;18.00;;;;;6.83;81.39;101385.09;5055008;28;45674;-64
2022/12/19 07:01:15;;;;;;;;;20.00;18.00;;;;;6.84;81.56;101375.59;5059294;27;48052;-64
2022/12/19 07:03:41;;;;;;;;;22.00;19.00;;;;;6.89;81.54;101393.09;5079198;28;45557;-63
2022/12/19 07:06:07;;;;;;;;;22.25;18.50;;;;;6.87;81.52;101386.09;5079081;27;45660;-65
2022/12/19 07:08:33;;;;;;;;;20.50;18.75;;;;;6.89;81.61;101395.69;5078674;28;45396;-63
2022/12/19 07:10:58;;;;;;;;;21.50;19.00;;;;;6.92;81.20;101408.78;5074254;28;46407;-64
2022/12/19 07:13:24;;;;;;;;;19.75;17.50;;;;;6.94;81.29;101406.25;5054613;28;45689;-64
2022/12/19 07:15:51;;;;;;;;;22.75;21.00;;;;;6.89;81.38;101394.81;5069735;28;45364;-65
2022/12/19 07:18:17;;;;;;;;;21.75;19.75;;;;;6.85;81.52;101392.97;5075157;28;45695;-63
2022/12/19 07:20:43;;;;;;;;;20.00;18.25;;;;;6.94;81.30;101399.31;5077204;28;45431;-64
2022/12/19 07:23:13;;;;;;;;;20.50;17.00;;;;;6.91;81.62;101398.34;5076289;28;45381;-65
2022/12/19 07:25:39;;;;;;;;;17.00;15.25;;;;;6.97;81.29;101416.72;5074378;27;45518;-62
2022/12/19 07:28:06;;;;;;;;;26.00;19.00;;;;;6.95;81.63;101405.38;5078290;28;45469;-63
2022/12/19 07:30:31;;;;;;;;;16.50;16.50;;;;;7.00;81.25;101415.13;5068747;28;45546;-63
2022/12/19 07:32:57;;;;;;;;;18.25;15.50;;;;;6.95;81.99;101405.38;5070191;28;45599;-64
2022/12/19 07:35:23;;;;;;;;;15.00;14.75;;;;;6.97;81.41;101408.91;5074975;27;45476;-64
2022/12/19 07:37:49;;;;;;;;;23.25;19.50;;;;;6.94;81.27;101399.31;5074859;28;45653;-63
2022/12/19 07:40:16;;;;;;;;;22.50;17.75;;;;;7.04;81.59;101425.59;5065402;28;45430;-63
2022/12/19 07:42:42;;;;;;;;;22.25;20.75;;;;;6.99;81.48;101412.44;5055428;28;45567;-63
2022/12/19 07:45:08;;;;;;;;;18.50;16.75;;;;;7.05;81.15;101415.25;5054640;28;45817;-65
2022/12/19 07:47:34;;;;;;;;;25.75;22.00;;;;;6.99;81.45;101405.50;5055525;28;45377;-64
2022/12/19 07:50:00;;;;;;;;;20.00;17.50;;;;;6.96;81.53;101399.34;5057750;28;45643;-64
2022/12/19 07:52:26;;;;;;;;;17.50;17.00;;;;;7.06;81.19;101411.78;5046277;28;45528;-64
2022/12/19 07:54:51;;;;;;;;;21.50;17.75;;;;;7.04;81.03;101396.97;5053650;28;45648;-64
2022/12/19 07:57:17;;;;;;;;;20.00;18.50;;;;;7.07;81.01;101412.66;5053681;28;45688;-64
2022/12/19 07:59:43;;;;;;;;;16.50;16.50;;;;;7.09;80.71;101421.41;5047907;28;46707;-63
2022/12/19 08:02:09;;;;;;;;;17.25;15.25;;;;;7.10;80.38;101424.06;5036894;28;45746;-64
2022/12/19 08:04:34;;;;;;;;;19.75;16.50;;;;;7.14;80.22;101422.41;5053680;28;45762;-65
2022/12/19 08:07:01;;;;;;;;;20.50;19.00;;;;;7.17;80.43;101436.41;5052263;28;45481;-63
2022/12/19 08:09:27;;;;;;;;;17.75;15.25;;;;;7.18;80.49;101445.09;5056932;28;46010;-67
2022/12/19 08:11:53;;;;;;;;;17.00;15.75;;;;;7.23;80.17;101439.16;5066728;27;45300;-66
2022/12/19 08:14:19;;;;;;;;;15.00;15.00;;;;;7.25;79.67;101433.13;5055094;28;45399;-66
2022/12/19 08:16:45;;;;;;;;;18.75;18.00;;;;;7.21;79.47;101433.06;5063365;28;45434;-63
2022/12/19 08:19:10;;;;;;;;;21.25;17.00;;;;;7.29;79.64;101434.97;5065846;28;45571;-64
2022/12/19 08:21:36;;;;;;;;;17.25;15.50;;;;;7.33;79.50;101431.59;5054756;27;45650;-64
2022/12/19 08:24:02;;;;;;;;;18.00;17.25;;;;;7.27;79.53;101424.50;5040446;28;45642;-64
2022/12/19 08:26:27;;;;;;;;;15.00;13.75;;;;;7.31;79.09;101428.06;5039176;28;45328;-65
2022/12/19 08:28:55;;;;;;;;;17.25;15.75;;;;;7.34;78.91;101428.16;5064219;28;45494;-63
2022/12/19 08:31:25;;;;;;;;;21.00;17.25;;;;;7.42;78.92;101439.66;5035759;28;45428;-65
2022/12/19 08:33:53;;;;;;;;;20.75;18.00;;;;;7.36;78.39;101422.16;5055452;28;45501;-64
2022/12/19 08:36:19;;;;;;;;;15.50;14.00;;;;;7.41;78.34;101417.94;5057855;28;45493;-63
2022/12/19 08:38:46;;;;;;;;;16.75;15.50;;;;;7.56;78.42;101430.47;5046139;28;45782;-65
2022/12/19 08:41:14;;;;;;;;;18.75;16.50;;;;;7.58;77.99;101430.50;5062419;28;45491;-64
2022/12/19 08:43:40;;;;;;;;;15.75;13.75;;;;;7.67;77.75;101433.34;5048038;28;45761;-63
2022/12/19 08:46:08;;;;;;;;;16.25;15.50;;;;;7.76;77.47;101440.50;5070311;28;45319;-64
2022/12/19 08:48:34;;;;;;;;;16.75;14.00;;;;;7.82;77.38;101438.06;5051961;28;47160;-62
2022/12/19 08:51:06;;;;;;;;;16.50;14.50;;;;;7.87;76.81;101446.88;5052536;28;45355;-64
2022/12/19 08:53:35;;;;;;;;;14.75;13.75;;;;;7.84;76.60;101431.16;5052640;28;45947;-64
2022/12/19 08:56:08;;;;;;;;;15.00;14.00;;;;;7.89;76.37;101429.53;5070704;28;45553;-63
2022/12/19 08:58:34;;;;;;;;;19.50;15.75;;;;;7.99;75.86;101441.94;5068838;28;46670;-63
2022/12/19 09:01:03;;;;;;;;;14.50;13.50;;;;;7.97;76.16;101433.22;5073700;27;45536;-64
2022/12/19 09:03:30;;;;;;;;;19.50;16.50;;;;;8.04;75.81;101440.34;5065916;28;45350;-66
2022/12/19 09:05:57;;;;;;;;;16.25;16.25;;;;;8.02;75.52;101420.25;5053002;28;45525;-64
2022/12/19 09:08:24;;;;;;;;;11.50;11.25;;;;;8.06;75.32;101420.38;5052623;28;45849;-64
2022/12/19 09:10:50;;;;;;;;;16.00;14.75;;;;;8.07;75.22;101410.84;5055382;28;45615;-64
2022/12/19 09:13:16;;;;;;;;;15.75;14.00;;;;;8.20;75.05;101415.47;5060500;28;45523;-65
2022/12/19 09:15:41;;;;;;;;;15.25;12.00;;;;;8.33;74.82;101421.88;5058250;28;45687;-66
2022/12/19 16:53:01;;;;;;;;;17.25;12.75;;;;;9.64;77.72;101255.31;5064091;28;45388;-65
2022/12/19 16:55:27;;;;;;;;;11.25;9.00;;;;;9.76;77.37;101245.00;5044758;28;45622;-64
2022/12/19 16:57:55;;;;;;;;;13.00;11.75;;;;;9.98;76.11;101247.91;5049319;28;45756;-66
2022/12/19 17:00:23;;;;;;;;;9.50;9.50;;;;;10.19;75.98;101266.47;5048302;28;45411;-65
2022/12/19 17:02:57;;;;;;;;;11.75;9.00;;;;;10.29;75.43;101264.88;5045291;28;46810;-64
2022/12/19 17:05:30;;;;;;;;;12.00;9.25;;;;;10.39;75.19;101268.47;5044124;28;45939;-65
2022/12/19 17:07:56;;;;;;;;;11.50;9.75;;;;;10.53;74.48;101279.13;5048127;28;45451;-65
2022/12/19 17:10:29;;;;;;;;;11.50;10.50;;;;;10.65;73.67;101274.00;5050695;28;45481;-65
2022/12/19 17:12:56;;;;;;;;;9.75;9.25;;;;;10.74;74.25;101261.00;5048593;28;45492;-65
2022/12/19 17:15:28;;;;;;;;;11.50;9.75;;;;;10.73;73.53;101242.66;5046433;28;45549;-66
2022/12/19 17:17:57;;;;;;;;;11.25;10.50;;;;;10.88;72.52;101258.50;5050908;28;45766;-66
2022/12/19 17:20:26;;;;;;;;;12.50;11.50;;;;;10.87;72.33;101242.75;5046763;28;45686;-66
2022/12/19 17:22:51;;;;;;;;;8.00;8.00;;;;;10.91;72.12;101247.16;5047875;28;46517;-65
2022/12/19 17:25:23;;;;;;;;;10.25;9.25;;;;;11.02;71.95;101258.63;5047079;28;45930;-65
2022/12/19 17:27:50;;;;;;;;;14.00;13.00;;;;;11.06;71.71;101256.91;5047880;28;45835;-67
2022/12/19 17:30:16;;;;;;;;;10.25;9.25;;;;;11.07;72.04;101232.47;5049173;28;45338;-66
2022/12/19 17:32:44;;;;;;;;;12.75;10.00;;;;;11.08;71.06;101227.25;5044669;28;46882;-66
2022/12/19 17:35:18;;;;;;;;;12.00;10.50;;;;;11.08;71.29;101239.44;5044427;28;45545;-65
2022/12/19 17:37:49;;;;;;;;;8.75;8.50;;;;;11.15;71.14;101230.75;5040682;28;45428;-65
2022/12/19 17:40:21;;;;;;;;;15.50;12.00;;;;;11.14;71.48;101223.78;5045318;28;45594;-66
2022/12/19 17:42:51;;;;;;;;;14.00;11.25;;;;;11.18;71.09;101225.56;5047056;27;47172;-72
2022/12/19 17:45:21;;;;;;;;;13.50;11.50;;;;;11.17;71.13;101223.78;5050886;28;46468;-66
2022/12/19 17:47:47;;;;;;;;;10.00;10.00;;;;;11.11;70.52;101216.78;5061436;27;45532;-66
2022/12/19 17:50:28;;;;;;;;;16.75;12.25;;;;;10.90;70.93;101193.03;5045958;28;45829;-66
2022/12/19 17:52:55;;;;;;;;;15.00;11.00;;;;;11.03;71.03;101216.72;5065596;28;46434;-66
2022/12/19 17:55:26;;;;;;;;;12.00;11.00;;;;;11.14;70.59;101239.50;5065592;28;45776;-67
2022/12/19 17:57:53;;;;;;;;;16.25;10.00;;;;;11.16;70.98;101238.66;5062413;28;45524;-66
2022/12/19 18:00:22;;;;;;;;;11.75;11.25;;;;;11.18;70.82;101242.16;5067946;28;45678;-66
2022/12/19 18:02:51;;;;;;;;;13.50;12.25;;;;;11.06;70.04;101218.47;5061947;28;47004;-64
2022/12/19 18:05:21;;;;;;;;;12.50;10.75;;;;;11.18;70.59;101241.28;5034221;28;45810;-64
2022/12/19 18:07:50;;;;;;;;;8.75;8.75;;;;;11.17;70.17;101234.28;5056547;28;45539;-65
2022/12/19 18:10:22;;;;;;;;;12.75;11.75;;;;;11.11;70.69;101224.63;5055889;28;45623;-66
2022/12/19 18:12:49;;;;;;;;;11.25;10.00;;;;;11.19;70.18;101227.31;5050844;28;47906;-64
2022/12/19 18:15:16;;;;;;;;;14.00;11.25;;;;;11.12;70.23;101212.41;5041433;28;45757;-67
2022/12/19 18:17:43;;;;;;;;;13.25;11.25;;;;;11.19;70.29;101227.31;5038490;28;45367;-66
2022/12/19 18:20:23;;;;;;;;;12.25;11.75;;;;;11.20;69.96;101229.03;5073597;28;45574;-65
2022/12/19 18:22:49;;;;;;;;;11.50;10.25;;;;;11.21;69.59;101238.69;5052625;28;45549;-65
2022/12/19 18:25:22;;;;;;;;;12.00;11.50;;;;;11.09;69.46;101209.75;5051652;28;45486;-65
2022/12/19 18:27:48;;;;;;;;;13.00;12.25;;;;;11.26;69.52;101231.72;5052821;28;45502;-65
2022/12/19 18:30:15;;;;;;;;;13.50;12.25;;;;;11.18;69.01;101218.56;5041905;28;45829;-66
2022/12/19 18:32:46;;;;;;;;;11.75;10.50;;;;;11.18;69.21;101215.94;5037819;28;46616;-66
2022/12/19 18:35:30;;;;;;;;;10.75;10.75;;;;;11.31;69.62;101237.00;5038685;28;45544;-66
2022/12/19 18:37:59;;;;;;;;;17.50;11.75;;;;;11.24;69.33;101225.59;5056053;28;45442;-66
2022/12/19 18:40:25;;;;;;;;;10.25;8.75;;;;;11.12;68.72;101200.16;5035307;28;45577;-66
2022/12/19 18:42:51;;;;;;;;;10.50;8.75;;;;;11.38;69.13;101238.81;5052532;28;45484;-65
2022/12/19 18:45:19;;;;;;;;;11.00;10.00;;;;;11.32;68.85;101231.78;5049491;28;45377;-65
2022/12/19 18:47:49;;;;;;;;;8.00;8.00;;;;;11.41;68.79;101242.34;5034277;28;45907;-66
2022/12/19 18:50:19;;;;;;;;;10.75;8.75;;;;;11.37;68.80;101231.81;5054781;28;45411;-64
2022/12/19 18:52:45;;;;;;;;;9.75;8.50;;;;;11.36;68.56;101236.16;5050581;28;47758;-66
2022/12/19 18:55:20;;;;;;;;;12.00;10.50;;;;;11.41;68.34;101242.34;5054266;28;45470;-66
2022/12/19 18:57:46;;;;;;;;;12.25;11.50;;;;;11.46;68.13;101243.25;5049678;28;45411;-67
2022/12/19 19:00:23;;;;;;;;;9.25;9.25;;;;;11.47;68.35;101249.34;5039005;28;45977;-66
2022/12/19 19:03:10;;;;;;;;;10.50;10.25;;;;;11.49;68.51;101259.88;5052056;28;45474;-67
2022/12/19 19:05:38;;;;;;;;;12.75;10.50;;;;;11.51;68.11;101252.88;5051701;28;45420;-64